sensor_id;sensor_type;location;lat;lon;timestamp;P1;durP1;ratioP1;P2;durP2;ratioP2
60372;SDS011;46216;52.220;5.134;2023-06-14T00:00:57;8.20;;;3.20;;
60372;SDS011;46216;52.220;5.134;2023-06-14T00:03:23;4.82;;;2.92;;
60372;SDS011;46216;52.220;5.134;2023-06-14T00:05:49;7.00;;;3.05;;
60372;SDS011;46216;52.220;5.134;2023-06-14T00:08:15;4.18;;;2.85;;
60372;SDS011;46216;52.220;5.134;2023-06-14T00:10:40;4.68;;;2.80;;
60372;SDS011;46216;52.220;5.134;2023-06-14T00:13:07;8.13;;;3.20;;
60372;SDS011;46216;52.220;5.134;2023-06-14T00:15:33;6.85;;;3.13;;
60372;SDS011;46216;52.220;5.134;2023-06-14T00:17:59;5.13;;;2.80;;
60372;SDS011;46216;52.220;5.134;2023-06-14T00:20:28;4.03;;;2.90;;
60372;SDS011;46216;52.220;5.134;2023-06-14T00:22:55;5.50;;;3.20;;
60372;SDS011;46216;52.220;5.134;2023-06-14T00:25:22;6.10;;;2.75;;
60372;SDS011;46216;52.220;5.134;2023-06-14T00:27:52;6.03;;;2.65;;
60372;SDS011;46216;52.220;5.134;2023-06-14T00:30:18;4.13;;;2.72;;
60372;SDS011;46216;52.220;5.134;2023-06-14T00:32:44;11.43;;;3.10;;
60372;SDS011;46216;52.220;5.134;2023-06-14T00:35:10;6.43;;;2.70;;
60372;SDS011;46216;52.220;5.134;2023-06-14T00:37:35;4.65;;;3.00;;
60372;SDS011;46216;52.220;5.134;2023-06-14T00:40:01;4.85;;;3.03;;
60372;SDS011;46216;52.220;5.134;2023-06-14T00:42:28;6.32;;;2.92;;
60372;SDS011;46216;52.220;5.134;2023-06-14T00:44:54;5.53;;;2.78;;
60372;SDS011;46216;52.220;5.134;2023-06-14T00:47:22;5.57;;;2.70;;
60372;SDS011;46216;52.220;5.134;2023-06-14T00:49:49;2.90;;;2.60;;
60372;SDS011;46216;52.220;5.134;2023-06-14T00:52:18;7.18;;;2.95;;
60372;SDS011;46216;52.220;5.134;2023-06-14T00:54:44;3.40;;;2.50;;
60372;SDS011;46216;52.220;5.134;2023-06-14T00:57:10;5.40;;;2.85;;
60372;SDS011;46216;52.220;5.134;2023-06-14T00:59:46;5.72;;;2.92;;
60372;SDS011;46216;52.220;5.134;2023-06-14T01:02:13;6.43;;;2.67;;
60372;SDS011;46216;52.220;5.134;2023-06-14T01:04:49;4.55;;;2.80;;
60372;SDS011;46216;52.220;5.134;2023-06-14T01:15:13;6.18;;;2.65;;
60372;SDS011;46216;52.220;5.134;2023-06-14T01:17:40;5.00;;;3.15;;
60372;SDS011;46216;52.220;5.134;2023-06-14T01:20:09;7.07;;;2.83;;
60372;SDS011;46216;52.220;5.134;2023-06-14T01:22:47;8.40;;;3.03;;
60372;SDS011;46216;52.220;5.134;2023-06-14T01:25:15;9.38;;;2.88;;
60372;SDS011;46216;52.220;5.134;2023-06-14T01:27:41;4.07;;;3.05;;
60372;SDS011;46216;52.220;5.134;2023-06-14T01:30:07;5.65;;;2.92;;
60372;SDS011;46216;52.220;5.134;2023-06-14T01:32:34;7.70;;;3.38;;
60372;SDS011;46216;52.220;5.134;2023-06-14T01:35:01;5.30;;;2.75;;
60372;SDS011;46216;52.220;5.134;2023-06-14T01:37:26;6.20;;;2.65;;
60372;SDS011;46216;52.220;5.134;2023-06-14T01:39:52;5.35;;;2.72;;
60372;SDS011;46216;52.220;5.134;2023-06-14T01:42:18;6.32;;;2.63;;
60372;SDS011;46216;52.220;5.134;2023-06-14T01:44:45;9.73;;;2.70;;
60372;SDS011;46216;52.220;5.134;2023-06-14T01:47:12;3.85;;;2.42;;
60372;SDS011;46216;52.220;5.134;2023-06-14T01:49:39;4.22;;;2.80;;
60372;SDS011;46216;52.220;5.134;2023-06-14T01:52:05;4.15;;;2.80;;
60372;SDS011;46216;52.220;5.134;2023-06-14T01:54:31;6.25;;;2.60;;
60372;SDS011;46216;52.220;5.134;2023-06-14T01:56:56;8.10;;;2.60;;
60372;SDS011;46216;52.220;5.134;2023-06-14T01:59:22;7.22;;;2.75;;
60372;SDS011;46216;52.220;5.134;2023-06-14T02:01:47;4.03;;;2.60;;
60372;SDS011;46216;52.220;5.134;2023-06-14T02:04:12;9.75;;;2.90;;
60372;SDS011;46216;52.220;5.134;2023-06-14T02:06:38;6.40;;;2.90;;
60372;SDS011;46216;52.220;5.134;2023-06-14T02:09:03;4.10;;;2.55;;
60372;SDS011;46216;52.220;5.134;2023-06-14T02:11:29;6.53;;;2.70;;
60372;SDS011;46216;52.220;5.134;2023-06-14T02:13:54;5.22;;;2.90;;
60372;SDS011;46216;52.220;5.134;2023-06-14T02:16:20;3.95;;;2.47;;
60372;SDS011;46216;52.220;5.134;2023-06-14T02:18:45;6.35;;;2.80;;
60372;SDS011;46216;52.220;5.134;2023-06-14T02:21:11;7.03;;;2.75;;
60372;SDS011;46216;52.220;5.134;2023-06-14T02:23:36;9.13;;;2.60;;
60372;SDS011;46216;52.220;5.134;2023-06-14T02:26:01;3.35;;;2.47;;
60372;SDS011;46216;52.220;5.134;2023-06-14T02:28:27;4.90;;;2.53;;
60372;SDS011;46216;52.220;5.134;2023-06-14T02:30:53;6.97;;;2.90;;
60372;SDS011;46216;52.220;5.134;2023-06-14T02:33:18;4.55;;;2.72;;
60372;SDS011;46216;52.220;5.134;2023-06-14T02:35:43;5.50;;;2.47;;
60372;SDS011;46216;52.220;5.134;2023-06-14T02:38:09;4.22;;;2.88;;
60372;SDS011;46216;52.220;5.134;2023-06-14T02:40:34;4.43;;;2.70;;
60372;SDS011;46216;52.220;5.134;2023-06-14T02:43:00;7.97;;;2.65;;
60372;SDS011;46216;52.220;5.134;2023-06-14T02:45:26;4.63;;;2.60;;
60372;SDS011;46216;52.220;5.134;2023-06-14T02:47:52;4.60;;;2.53;;
60372;SDS011;46216;52.220;5.134;2023-06-14T02:50:17;9.20;;;3.10;;
60372;SDS011;46216;52.220;5.134;2023-06-14T02:52:43;6.47;;;2.55;;
60372;SDS011;46216;52.220;5.134;2023-06-14T02:55:09;8.82;;;2.50;;
60372;SDS011;46216;52.220;5.134;2023-06-14T02:57:35;7.05;;;2.97;;
60372;SDS011;46216;52.220;5.134;2023-06-14T03:00:00;5.07;;;2.67;;
60372;SDS011;46216;52.220;5.134;2023-06-14T03:02:26;3.58;;;2.47;;
60372;SDS011;46216;52.220;5.134;2023-06-14T03:04:51;4.22;;;2.88;;
60372;SDS011;46216;52.220;5.134;2023-06-14T03:07:16;5.70;;;2.53;;
60372;SDS011;46216;52.220;5.134;2023-06-14T03:09:45;3.15;;;2.72;;
60372;SDS011;46216;52.220;5.134;2023-06-14T03:12:10;4.93;;;2.60;;
60372;SDS011;46216;52.220;5.134;2023-06-14T03:14:36;5.82;;;2.50;;
60372;SDS011;46216;52.220;5.134;2023-06-14T03:17:02;4.55;;;2.72;;
60372;SDS011;46216;52.220;5.134;2023-06-14T03:19:29;4.05;;;2.45;;
60372;SDS011;46216;52.220;5.134;2023-06-14T03:21:55;3.72;;;2.22;;
60372;SDS011;46216;52.220;5.134;2023-06-14T03:24:22;5.85;;;2.88;;
60372;SDS011;46216;52.220;5.134;2023-06-14T03:26:48;3.13;;;2.40;;
60372;SDS011;46216;52.220;5.134;2023-06-14T03:29:14;4.22;;;2.60;;
60372;SDS011;46216;52.220;5.134;2023-06-14T03:31:56;4.43;;;2.50;;
60372;SDS011;46216;52.220;5.134;2023-06-14T03:34:25;8.95;;;2.60;;
60372;SDS011;46216;52.220;5.134;2023-06-14T03:36:50;6.78;;;2.72;;
60372;SDS011;46216;52.220;5.134;2023-06-14T03:39:15;5.05;;;2.55;;
60372;SDS011;46216;52.220;5.134;2023-06-14T03:41:41;3.85;;;2.47;;
60372;SDS011;46216;52.220;5.134;2023-06-14T03:44:06;5.60;;;2.85;;
60372;SDS011;46216;52.220;5.134;2023-06-14T03:46:31;5.57;;;2.80;;
60372;SDS011;46216;52.220;5.134;2023-06-14T03:48:57;3.35;;;2.67;;
60372;SDS011;46216;52.220;5.134;2023-06-14T03:51:22;6.72;;;2.58;;
60372;SDS011;46216;52.220;5.134;2023-06-14T03:53:47;4.13;;;2.70;;
60372;SDS011;46216;52.220;5.134;2023-06-14T03:56:13;6.55;;;2.30;;
60372;SDS011;46216;52.220;5.134;2023-06-14T03:58:38;3.78;;;2.40;;
60372;SDS011;46216;52.220;5.134;2023-06-14T04:01:03;6.25;;;2.20;;
60372;SDS011;46216;52.220;5.134;2023-06-14T04:03:29;5.15;;;2.50;;
60372;SDS011;46216;52.220;5.134;2023-06-14T04:05:54;3.25;;;2.60;;
60372;SDS011;46216;52.220;5.134;2023-06-14T04:08:21;3.47;;;2.38;;
60372;SDS011;46216;52.220;5.134;2023-06-14T04:10:47;3.22;;;2.63;;
60372;SDS011;46216;52.220;5.134;2023-06-14T04:13:12;4.18;;;2.45;;
60372;SDS011;46216;52.220;5.134;2023-06-14T04:15:38;5.28;;;2.47;;
60372;SDS011;46216;52.220;5.134;2023-06-14T04:18:07;4.20;;;2.63;;
60372;SDS011;46216;52.220;5.134;2023-06-14T04:20:33;5.35;;;2.47;;
60372;SDS011;46216;52.220;5.134;2023-06-14T04:23:10;6.45;;;2.90;;
60372;SDS011;46216;52.220;5.134;2023-06-14T04:25:42;4.75;;;2.55;;
60372;SDS011;46216;52.220;5.134;2023-06-14T04:28:10;7.65;;;2.78;;
60372;SDS011;46216;52.220;5.134;2023-06-14T04:30:36;3.20;;;2.33;;
60372;SDS011;46216;52.220;5.134;2023-06-14T04:33:04;7.03;;;2.55;;
60372;SDS011;46216;52.220;5.134;2023-06-14T04:35:31;4.93;;;2.72;;
60372;SDS011;46216;52.220;5.134;2023-06-14T04:37:58;4.88;;;2.45;;
60372;SDS011;46216;52.220;5.134;2023-06-14T04:40:24;4.07;;;2.50;;
60372;SDS011;46216;52.220;5.134;2023-06-14T04:42:49;7.38;;;2.97;;
60372;SDS011;46216;52.220;5.134;2023-06-14T04:45:16;4.85;;;2.72;;
60372;SDS011;46216;52.220;5.134;2023-06-14T04:47:41;5.13;;;2.63;;
60372;SDS011;46216;52.220;5.134;2023-06-14T04:50:09;5.10;;;2.65;;
60372;SDS011;46216;52.220;5.134;2023-06-14T04:52:37;8.35;;;2.75;;
60372;SDS011;46216;52.220;5.134;2023-06-14T04:55:02;6.72;;;2.70;;
60372;SDS011;46216;52.220;5.134;2023-06-14T04:57:28;8.10;;;2.95;;
60372;SDS011;46216;52.220;5.134;2023-06-14T04:59:54;5.45;;;2.80;;
60372;SDS011;46216;52.220;5.134;2023-06-14T05:02:20;6.47;;;2.60;;
60372;SDS011;46216;52.220;5.134;2023-06-14T05:04:49;7.78;;;2.95;;
60372;SDS011;46216;52.220;5.134;2023-06-14T05:07:15;6.22;;;2.90;;
60372;SDS011;46216;52.220;5.134;2023-06-14T05:09:41;3.58;;;2.75;;
60372;SDS011;46216;52.220;5.134;2023-06-14T05:12:06;4.65;;;2.70;;
60372;SDS011;46216;52.220;5.134;2023-06-14T05:14:35;6.30;;;2.47;;
60372;SDS011;46216;52.220;5.134;2023-06-14T05:17:01;6.18;;;2.85;;
60372;SDS011;46216;52.220;5.134;2023-06-14T05:19:27;3.67;;;2.72;;
60372;SDS011;46216;52.220;5.134;2023-06-14T05:21:53;4.13;;;2.38;;
60372;SDS011;46216;52.220;5.134;2023-06-14T05:24:18;5.18;;;2.72;;
60372;SDS011;46216;52.220;5.134;2023-06-14T05:26:44;6.25;;;2.72;;
60372;SDS011;46216;52.220;5.134;2023-06-14T05:29:10;5.80;;;2.70;;
60372;SDS011;46216;52.220;5.134;2023-06-14T05:31:36;4.10;;;2.47;;
60372;SDS011;46216;52.220;5.134;2023-06-14T05:34:02;6.68;;;2.92;;
60372;SDS011;46216;52.220;5.134;2023-06-14T05:36:28;5.13;;;2.58;;
60372;SDS011;46216;52.220;5.134;2023-06-14T05:38:53;4.38;;;2.55;;
60372;SDS011;46216;52.220;5.134;2023-06-14T05:41:27;5.22;;;2.50;;
60372;SDS011;46216;52.220;5.134;2023-06-14T05:43:54;4.85;;;2.67;;
60372;SDS011;46216;52.220;5.134;2023-06-14T05:46:20;4.80;;;2.85;;
60372;SDS011;46216;52.220;5.134;2023-06-14T05:48:53;3.90;;;2.90;;
60372;SDS011;46216;52.220;5.134;2023-06-14T05:51:19;4.82;;;2.75;;
60372;SDS011;46216;52.220;5.134;2023-06-14T05:53:45;4.55;;;3.00;;
60372;SDS011;46216;52.220;5.134;2023-06-14T05:56:11;7.00;;;3.10;;
60372;SDS011;46216;52.220;5.134;2023-06-14T05:58:37;9.35;;;3.20;;
60372;SDS011;46216;52.220;5.134;2023-06-14T06:01:09;4.55;;;2.80;;
60372;SDS011;46216;52.220;5.134;2023-06-14T06:03:34;5.93;;;3.08;;
60372;SDS011;46216;52.220;5.134;2023-06-14T06:05:59;5.68;;;2.92;;
60372;SDS011;46216;52.220;5.134;2023-06-14T06:08:26;4.88;;;2.75;;
60372;SDS011;46216;52.220;5.134;2023-06-14T06:10:52;6.70;;;3.00;;
60372;SDS011;46216;52.220;5.134;2023-06-14T06:13:17;8.25;;;2.92;;
60372;SDS011;46216;52.220;5.134;2023-06-14T06:15:42;5.40;;;2.92;;
60372;SDS011;46216;52.220;5.134;2023-06-14T06:18:08;6.72;;;3.28;;
60372;SDS011;46216;52.220;5.134;2023-06-14T06:20:33;5.47;;;3.17;;
60372;SDS011;46216;52.220;5.134;2023-06-14T06:22:59;5.05;;;2.83;;
60372;SDS011;46216;52.220;5.134;2023-06-14T06:25:25;5.22;;;3.15;;
60372;SDS011;46216;52.220;5.134;2023-06-14T06:27:51;5.78;;;2.80;;
60372;SDS011;46216;52.220;5.134;2023-06-14T06:30:18;7.10;;;2.92;;
60372;SDS011;46216;52.220;5.134;2023-06-14T06:32:44;5.88;;;3.40;;
60372;SDS011;46216;52.220;5.134;2023-06-14T06:35:09;4.63;;;2.50;;
60372;SDS011;46216;52.220;5.134;2023-06-14T06:37:36;3.97;;;2.65;;
60372;SDS011;46216;52.220;5.134;2023-06-14T06:40:02;8.52;;;3.05;;
60372;SDS011;46216;52.220;5.134;2023-06-14T06:42:28;5.05;;;2.88;;
60372;SDS011;46216;52.220;5.134;2023-06-14T06:44:54;4.35;;;3.03;;
60372;SDS011;46216;52.220;5.134;2023-06-14T06:47:19;6.47;;;3.00;;
60372;SDS011;46216;52.220;5.134;2023-06-14T06:49:45;4.90;;;2.83;;
60372;SDS011;46216;52.220;5.134;2023-06-14T06:52:10;3.58;;;2.80;;
60372;SDS011;46216;52.220;5.134;2023-06-14T06:54:36;4.43;;;2.90;;
60372;SDS011;46216;52.220;5.134;2023-06-14T06:57:01;5.20;;;2.80;;
60372;SDS011;46216;52.220;5.134;2023-06-14T06:59:28;3.45;;;2.80;;
60372;SDS011;46216;52.220;5.134;2023-06-14T07:01:53;3.78;;;3.10;;
60372;SDS011;46216;52.220;5.134;2023-06-14T07:04:18;5.07;;;3.00;;
60372;SDS011;46216;52.220;5.134;2023-06-14T07:06:45;4.22;;;2.67;;
60372;SDS011;46216;52.220;5.134;2023-06-14T07:09:11;7.38;;;3.10;;
60372;SDS011;46216;52.220;5.134;2023-06-14T07:11:39;5.15;;;3.35;;
60372;SDS011;46216;52.220;5.134;2023-06-14T07:14:04;6.00;;;3.05;;
60372;SDS011;46216;52.220;5.134;2023-06-14T07:16:30;3.80;;;2.65;;
60372;SDS011;46216;52.220;5.134;2023-06-14T07:18:55;4.13;;;2.80;;
60372;SDS011;46216;52.220;5.134;2023-06-14T07:21:20;4.60;;;3.00;;
60372;SDS011;46216;52.220;5.134;2023-06-14T07:23:46;3.83;;;3.03;;
60372;SDS011;46216;52.220;5.134;2023-06-14T07:26:11;4.38;;;2.95;;
60372;SDS011;46216;52.220;5.134;2023-06-14T07:28:37;5.15;;;2.80;;
60372;SDS011;46216;52.220;5.134;2023-06-14T07:31:02;7.82;;;2.88;;
60372;SDS011;46216;52.220;5.134;2023-06-14T07:33:27;4.80;;;2.90;;
60372;SDS011;46216;52.220;5.134;2023-06-14T07:35:53;4.78;;;2.75;;
60372;SDS011;46216;52.220;5.134;2023-06-14T07:38:18;6.53;;;2.97;;
60372;SDS011;46216;52.220;5.134;2023-06-14T07:40:43;6.68;;;2.97;;
60372;SDS011;46216;52.220;5.134;2023-06-14T07:43:09;6.20;;;3.00;;
60372;SDS011;46216;52.220;5.134;2023-06-14T07:45:34;8.20;;;3.13;;
60372;SDS011;46216;52.220;5.134;2023-06-14T07:48:00;4.45;;;2.67;;
60372;SDS011;46216;52.220;5.134;2023-06-14T07:50:25;7.47;;;2.90;;
60372;SDS011;46216;52.220;5.134;2023-06-14T07:52:50;3.22;;;2.55;;
60372;SDS011;46216;52.220;5.134;2023-06-14T07:55:16;5.97;;;2.50;;
60372;SDS011;46216;52.220;5.134;2023-06-14T07:57:41;2.88;;;2.50;;
60372;SDS011;46216;52.220;5.134;2023-06-14T08:00:08;3.47;;;2.42;;
60372;SDS011;46216;52.220;5.134;2023-06-14T08:02:36;5.20;;;2.60;;
60372;SDS011;46216;52.220;5.134;2023-06-14T08:05:01;4.40;;;2.50;;
60372;SDS011;46216;52.220;5.134;2023-06-14T08:07:27;2.90;;;2.20;;
60372;SDS011;46216;52.220;5.134;2023-06-14T08:09:52;5.15;;;2.58;;
60372;SDS011;46216;52.220;5.134;2023-06-14T08:12:17;5.90;;;2.55;;
60372;SDS011;46216;52.220;5.134;2023-06-14T08:14:43;7.68;;;2.50;;
60372;SDS011;46216;52.220;5.134;2023-06-14T08:17:08;4.05;;;2.08;;
60372;SDS011;46216;52.220;5.134;2023-06-14T08:19:33;5.70;;;2.60;;
60372;SDS011;46216;52.220;5.134;2023-06-14T08:21:59;3.65;;;2.00;;
60372;SDS011;46216;52.220;5.134;2023-06-14T08:24:25;6.15;;;2.40;;
60372;SDS011;46216;52.220;5.134;2023-06-14T08:26:52;6.75;;;2.42;;
60372;SDS011;46216;52.220;5.134;2023-06-14T08:29:18;2.75;;;2.30;;
60372;SDS011;46216;52.220;5.134;2023-06-14T08:31:43;2.50;;;2.10;;
60372;SDS011;46216;52.220;5.134;2023-06-14T08:34:09;3.88;;;2.10;;
60372;SDS011;46216;52.220;5.134;2023-06-14T08:36:35;4.40;;;2.00;;
60372;SDS011;46216;52.220;5.134;2023-06-14T08:39:00;4.82;;;2.08;;
60372;SDS011;46216;52.220;5.134;2023-06-14T08:41:26;2.55;;;1.90;;
60372;SDS011;46216;52.220;5.134;2023-06-14T08:43:54;2.78;;;2.03;;
60372;SDS011;46216;52.220;5.134;2023-06-14T08:46:20;3.67;;;1.80;;
60372;SDS011;46216;52.220;5.134;2023-06-14T08:48:51;3.35;;;2.00;;
60372;SDS011;46216;52.220;5.134;2023-06-14T08:51:21;4.22;;;2.05;;
60372;SDS011;46216;52.220;5.134;2023-06-14T08:53:52;3.17;;;2.10;;
60372;SDS011;46216;52.220;5.134;2023-06-14T08:56:19;3.55;;;1.80;;
60372;SDS011;46216;52.220;5.134;2023-06-14T08:58:45;2.50;;;1.98;;
60372;SDS011;46216;52.220;5.134;2023-06-14T09:01:13;3.05;;;1.70;;
60372;SDS011;46216;52.220;5.134;2023-06-14T09:03:42;6.00;;;1.92;;
60372;SDS011;46216;52.220;5.134;2023-06-14T09:06:11;3.55;;;1.80;;
60372;SDS011;46216;52.220;5.134;2023-06-14T09:08:42;4.90;;;1.98;;
60372;SDS011;46216;52.220;5.134;2023-06-14T09:11:10;2.03;;;1.83;;
60372;SDS011;46216;52.220;5.134;2023-06-14T09:13:37;3.45;;;1.70;;
60372;SDS011;46216;52.220;5.134;2023-06-14T09:16:03;7.07;;;2.00;;
60372;SDS011;46216;52.220;5.134;2023-06-14T09:18:34;4.95;;;2.15;;
60372;SDS011;46216;52.220;5.134;2023-06-14T09:21:00;1.90;;;1.65;;
60372;SDS011;46216;52.220;5.134;2023-06-14T09:23:25;3.40;;;1.85;;
60372;SDS011;46216;52.220;5.134;2023-06-14T09:25:51;5.05;;;2.10;;
60372;SDS011;46216;52.220;5.134;2023-06-14T09:28:16;3.65;;;2.00;;
60372;SDS011;46216;52.220;5.134;2023-06-14T09:30:41;2.35;;;1.70;;
60372;SDS011;46216;52.220;5.134;2023-06-14T09:33:07;4.20;;;1.75;;
60372;SDS011;46216;52.220;5.134;2023-06-14T09:35:33;3.75;;;2.00;;
60372;SDS011;46216;52.220;5.134;2023-06-14T09:37:59;2.10;;;1.90;;
60372;SDS011;46216;52.220;5.134;2023-06-14T09:40:24;2.10;;;1.70;;
60372;SDS011;46216;52.220;5.134;2023-06-14T09:42:50;2.05;;;1.70;;
60372;SDS011;46216;52.220;5.134;2023-06-14T09:45:17;2.28;;;1.60;;
60372;SDS011;46216;52.220;5.134;2023-06-14T09:47:47;3.75;;;1.73;;
60372;SDS011;46216;52.220;5.134;2023-06-14T09:50:13;4.93;;;1.90;;
60372;SDS011;46216;52.220;5.134;2023-06-14T09:52:39;3.28;;;1.80;;
60372;SDS011;46216;52.220;5.134;2023-06-14T09:55:12;3.53;;;1.80;;
60372;SDS011;46216;52.220;5.134;2023-06-14T09:57:40;4.18;;;2.03;;
60372;SDS011;46216;52.220;5.134;2023-06-14T10:00:07;2.85;;;1.60;;
60372;SDS011;46216;52.220;5.134;2023-06-14T10:02:36;2.20;;;1.70;;
60372;SDS011;46216;52.220;5.134;2023-06-14T10:05:04;3.53;;;1.92;;
60372;SDS011;46216;52.220;5.134;2023-06-14T10:07:40;3.92;;;2.08;;
60372;SDS011;46216;52.220;5.134;2023-06-14T10:10:09;2.38;;;1.63;;
60372;SDS011;46216;52.220;5.134;2023-06-14T10:12:35;3.67;;;1.60;;
60372;SDS011;46216;52.220;5.134;2023-06-14T10:15:01;3.80;;;1.70;;
60372;SDS011;46216;52.220;5.134;2023-06-14T10:17:42;2.30;;;1.70;;
60372;SDS011;46216;52.220;5.134;2023-06-14T10:20:18;4.15;;;2.00;;
60372;SDS011;46216;52.220;5.134;2023-06-14T10:22:52;2.45;;;1.60;;
60372;SDS011;46216;52.220;5.134;2023-06-14T10:25:28;3.50;;;1.70;;
60372;SDS011;46216;52.220;5.134;2023-06-14T10:31:01;4.25;;;1.70;;
60372;SDS011;46216;52.220;5.134;2023-06-14T10:33:29;2.83;;;1.90;;
60372;SDS011;46216;52.220;5.134;2023-06-14T10:38:58;2.03;;;1.65;;
60372;SDS011;46216;52.220;5.134;2023-06-14T10:41:32;3.30;;;1.67;;
60372;SDS011;46216;52.220;5.134;2023-06-14T10:46:47;3.05;;;1.60;;
60372;SDS011;46216;52.220;5.134;2023-06-14T10:49:20;2.50;;;1.45;;
60372;SDS011;46216;52.220;5.134;2023-06-14T10:52:14;2.92;;;1.65;;
60372;SDS011;46216;52.220;5.134;2023-06-14T10:57:47;1.90;;;1.70;;
60372;SDS011;46216;52.220;5.134;2023-06-14T11:00:16;2.92;;;1.60;;
60372;SDS011;46216;52.220;5.134;2023-06-14T11:05:31;6.22;;;1.58;;
60372;SDS011;46216;52.220;5.134;2023-06-14T11:11:05;1.67;;;1.55;;
60372;SDS011;46216;52.220;5.134;2023-06-14T11:13:32;3.90;;;1.73;;
60372;SDS011;46216;52.220;5.134;2023-06-14T11:15:57;1.75;;;1.63;;
60372;SDS011;46216;52.220;5.134;2023-06-14T11:18:23;1.98;;;1.40;;
60372;SDS011;46216;52.220;5.134;2023-06-14T11:20:50;2.88;;;1.60;;
60372;SDS011;46216;52.220;5.134;2023-06-14T11:23:15;2.47;;;1.50;;
60372;SDS011;46216;52.220;5.134;2023-06-14T11:25:41;2.78;;;1.60;;
60372;SDS011;46216;52.220;5.134;2023-06-14T11:28:06;2.30;;;1.50;;
60372;SDS011;46216;52.220;5.134;2023-06-14T11:30:32;1.70;;;1.50;;
60372;SDS011;46216;52.220;5.134;2023-06-14T11:32:57;6.60;;;1.65;;
60372;SDS011;46216;52.220;5.134;2023-06-14T11:35:23;4.43;;;1.80;;
60372;SDS011;46216;52.220;5.134;2023-06-14T11:37:53;3.95;;;1.60;;
60372;SDS011;46216;52.220;5.134;2023-06-14T11:40:25;3.75;;;1.48;;
60372;SDS011;46216;52.220;5.134;2023-06-14T11:42:59;2.40;;;1.40;;
60372;SDS011;46216;52.220;5.134;2023-06-14T11:45:26;1.55;;;1.33;;
60372;SDS011;46216;52.220;5.134;2023-06-14T11:47:53;1.67;;;1.30;;
60372;SDS011;46216;52.220;5.134;2023-06-14T11:50:21;2.42;;;1.50;;
60372;SDS011;46216;52.220;5.134;2023-06-14T11:52:51;1.50;;;1.40;;
60372;SDS011;46216;52.220;5.134;2023-06-14T11:55:21;2.30;;;1.50;;
60372;SDS011;46216;52.220;5.134;2023-06-14T11:57:47;2.17;;;1.40;;
60372;SDS011;46216;52.220;5.134;2023-06-14T12:00:13;4.78;;;1.60;;
60372;SDS011;46216;52.220;5.134;2023-06-14T12:02:40;3.47;;;1.52;;
60372;SDS011;46216;52.220;5.134;2023-06-14T12:05:06;2.60;;;1.48;;
60372;SDS011;46216;52.220;5.134;2023-06-14T12:07:38;5.47;;;1.50;;
60372;SDS011;46216;52.220;5.134;2023-06-14T12:10:08;2.78;;;1.50;;
60372;SDS011;46216;52.220;5.134;2023-06-14T12:12:35;2.25;;;1.52;;
60372;SDS011;46216;52.220;5.134;2023-06-14T12:15:03;2.63;;;1.52;;
60372;SDS011;46216;52.220;5.134;2023-06-14T12:17:33;4.63;;;1.50;;
60372;SDS011;46216;52.220;5.134;2023-06-14T12:20:04;2.08;;;1.30;;
60372;SDS011;46216;52.220;5.134;2023-06-14T12:22:33;4.05;;;1.42;;
60372;SDS011;46216;52.220;5.134;2023-06-14T12:24:59;2.80;;;1.40;;
60372;SDS011;46216;52.220;5.134;2023-06-14T12:27:25;3.10;;;1.90;;
60372;SDS011;46216;52.220;5.134;2023-06-14T12:30:03;4.28;;;1.55;;
60372;SDS011;46216;52.220;5.134;2023-06-14T12:32:29;6.25;;;1.65;;
60372;SDS011;46216;52.220;5.134;2023-06-14T12:34:55;2.53;;;1.63;;
60372;SDS011;46216;52.220;5.134;2023-06-14T12:37:20;2.10;;;1.42;;
60372;SDS011;46216;52.220;5.134;2023-06-14T12:39:46;3.65;;;1.75;;
60372;SDS011;46216;52.220;5.134;2023-06-14T12:42:12;4.28;;;1.70;;
60372;SDS011;46216;52.220;5.134;2023-06-14T12:44:39;2.05;;;1.48;;
60372;SDS011;46216;52.220;5.134;2023-06-14T12:47:06;2.50;;;1.45;;
60372;SDS011;46216;52.220;5.134;2023-06-14T12:49:32;4.22;;;1.67;;
60372;SDS011;46216;52.220;5.134;2023-06-14T12:51:58;1.58;;;1.48;;
60372;SDS011;46216;52.220;5.134;2023-06-14T12:54:23;3.63;;;1.48;;
60372;SDS011;46216;52.220;5.134;2023-06-14T12:56:50;6.25;;;1.80;;
60372;SDS011;46216;52.220;5.134;2023-06-14T12:59:17;3.45;;;1.40;;
60372;SDS011;46216;52.220;5.134;2023-06-14T13:01:43;5.53;;;1.90;;
60372;SDS011;46216;52.220;5.134;2023-06-14T13:04:09;3.70;;;1.55;;
60372;SDS011;46216;52.220;5.134;2023-06-14T13:06:35;2.10;;;1.45;;
60372;SDS011;46216;52.220;5.134;2023-06-14T13:09:00;2.45;;;1.45;;
60372;SDS011;46216;52.220;5.134;2023-06-14T13:11:26;1.63;;;1.40;;
60372;SDS011;46216;52.220;5.134;2023-06-14T13:13:52;2.10;;;1.70;;
60372;SDS011;46216;52.220;5.134;2023-06-14T13:16:17;5.50;;;1.70;;
60372;SDS011;46216;52.220;5.134;2023-06-14T13:18:43;2.28;;;1.45;;
60372;SDS011;46216;52.220;5.134;2023-06-14T13:21:08;3.58;;;1.55;;
60372;SDS011;46216;52.220;5.134;2023-06-14T13:23:33;4.53;;;1.85;;
60372;SDS011;46216;52.220;5.134;2023-06-14T13:25:59;1.55;;;1.40;;
60372;SDS011;46216;52.220;5.134;2023-06-14T13:28:24;4.07;;;1.58;;
60372;SDS011;46216;52.220;5.134;2023-06-14T13:30:49;3.13;;;1.60;;
60372;SDS011;46216;52.220;5.134;2023-06-14T13:33:15;3.75;;;1.52;;
60372;SDS011;46216;52.220;5.134;2023-06-14T13:35:41;3.92;;;1.60;;
60372;SDS011;46216;52.220;5.134;2023-06-14T13:38:06;2.90;;;1.50;;
60372;SDS011;46216;52.220;5.134;2023-06-14T13:40:33;2.72;;;1.60;;
60372;SDS011;46216;52.220;5.134;2023-06-14T13:42:58;3.58;;;1.70;;
60372;SDS011;46216;52.220;5.134;2023-06-14T13:45:23;2.83;;;1.50;;
60372;SDS011;46216;52.220;5.134;2023-06-14T13:47:49;3.55;;;1.40;;
60372;SDS011;46216;52.220;5.134;2023-06-14T13:50:14;2.63;;;1.60;;
60372;SDS011;46216;52.220;5.134;2023-06-14T13:52:41;1.83;;;1.60;;
60372;SDS011;46216;52.220;5.134;2023-06-14T13:55:06;2.92;;;1.48;;
60372;SDS011;46216;52.220;5.134;2023-06-14T13:57:32;1.77;;;1.50;;
60372;SDS011;46216;52.220;5.134;2023-06-14T13:59:58;2.35;;;1.45;;
60372;SDS011;46216;52.220;5.134;2023-06-14T14:02:26;2.25;;;1.40;;
60372;SDS011;46216;52.220;5.134;2023-06-14T14:04:53;3.83;;;1.50;;
60372;SDS011;46216;52.220;5.134;2023-06-14T14:07:19;1.58;;;1.40;;
60372;SDS011;46216;52.220;5.134;2023-06-14T14:09:45;1.95;;;1.63;;
60372;SDS011;46216;52.220;5.134;2023-06-14T14:12:11;1.60;;;1.40;;
60372;SDS011;46216;52.220;5.134;2023-06-14T14:14:36;2.95;;;1.73;;
60372;SDS011;46216;52.220;5.134;2023-06-14T14:17:02;2.88;;;1.40;;
60372;SDS011;46216;52.220;5.134;2023-06-14T14:19:27;4.55;;;1.75;;
60372;SDS011;46216;52.220;5.134;2023-06-14T14:21:53;2.50;;;1.70;;
60372;SDS011;46216;52.220;5.134;2023-06-14T14:24:19;3.95;;;1.70;;
60372;SDS011;46216;52.220;5.134;2023-06-14T14:26:44;3.35;;;1.60;;
60372;SDS011;46216;52.220;5.134;2023-06-14T14:29:12;2.45;;;1.80;;
60372;SDS011;46216;52.220;5.134;2023-06-14T14:31:38;2.15;;;1.60;;
60372;SDS011;46216;52.220;5.134;2023-06-14T14:34:03;1.48;;;1.33;;
60372;SDS011;46216;52.220;5.134;2023-06-14T14:36:28;1.80;;;1.50;;
60372;SDS011;46216;52.220;5.134;2023-06-14T14:38:54;2.30;;;1.50;;
60372;SDS011;46216;52.220;5.134;2023-06-14T14:41:19;3.20;;;1.60;;
60372;SDS011;46216;52.220;5.134;2023-06-14T14:43:44;2.20;;;1.40;;
60372;SDS011;46216;52.220;5.134;2023-06-14T14:46:10;3.70;;;1.52;;
60372;SDS011;46216;52.220;5.134;2023-06-14T14:48:35;3.75;;;1.50;;
60372;SDS011;46216;52.220;5.134;2023-06-14T14:51:01;2.50;;;1.67;;
60372;SDS011;46216;52.220;5.134;2023-06-14T14:53:27;2.38;;;1.65;;
60372;SDS011;46216;52.220;5.134;2023-06-14T14:55:52;2.45;;;1.40;;
60372;SDS011;46216;52.220;5.134;2023-06-14T14:58:18;2.60;;;1.50;;
60372;SDS011;46216;52.220;5.134;2023-06-14T15:00:47;6.78;;;1.70;;
60372;SDS011;46216;52.220;5.134;2023-06-14T15:03:13;3.45;;;1.27;;
60372;SDS011;46216;52.220;5.134;2023-06-14T15:05:39;3.45;;;1.50;;
60372;SDS011;46216;52.220;5.134;2023-06-14T15:08:05;2.30;;;1.70;;
60372;SDS011;46216;52.220;5.134;2023-06-14T15:10:39;2.72;;;1.70;;